sensor_id;sensor_type;location;lat;lon;timestamp;P1;durP1;ratioP1;P2;durP2;ratioP2
77800;SDS011;66991;50.058;14.454;2023-02-19T00:01:39;1.83;;;0.80;;
77800;SDS011;66991;50.058;14.454;2023-02-19T00:04:07;2.05;;;0.82;;
77800;SDS011;66991;50.058;14.454;2023-02-19T00:06:36;1.60;;;0.80;;
77800;SDS011;66991;50.058;14.454;2023-02-19T00:09:02;2.85;;;1.15;;
77800;SDS011;66991;50.058;14.454;2023-02-19T00:11:29;1.38;;;0.65;;
77800;SDS011;66991;50.058;14.454;2023-02-19T00:13:59;2.67;;;0.95;;
77800;SDS011;66991;50.058;14.454;2023-02-19T00:16:27;2.85;;;1.10;;
77800;SDS011;66991;50.058;14.454;2023-02-19T00:18:54;3.65;;;1.33;;
77800;SDS011;66991;50.058;14.454;2023-02-19T00:21:20;2.55;;;1.00;;
77800;SDS011;66991;50.058;14.454;2023-02-19T00:23:50;2.20;;;1.10;;
77800;SDS011;66991;50.058;14.454;2023-02-19T00:26:19;2.20;;;0.90;;
77800;SDS011;66991;50.058;14.454;2023-02-19T00:28:45;3.38;;;1.63;;
77800;SDS011;66991;50.058;14.454;2023-02-19T00:31:18;3.80;;;1.80;;
77800;SDS011;66991;50.058;14.454;2023-02-19T00:33:48;2.95;;;1.45;;
77800;SDS011;66991;50.058;14.454;2023-02-19T00:36:15;3.92;;;1.60;;
77800;SDS011;66991;50.058;14.454;2023-02-19T00:38:41;3.08;;;1.35;;
77800;SDS011;66991;50.058;14.454;2023-02-19T00:41:07;2.40;;;1.20;;
77800;SDS011;66991;50.058;14.454;2023-02-19T00:43:52;2.63;;;1.35;;
77800;SDS011;66991;50.058;14.454;2023-02-19T00:46:25;3.08;;;1.23;;
77800;SDS011;66991;50.058;14.454;2023-02-19T00:48:55;2.17;;;1.15;;
77800;SDS011;66991;50.058;14.454;2023-02-19T00:51:21;2.65;;;1.42;;
77800;SDS011;66991;50.058;14.454;2023-02-19T00:53:48;5.63;;;1.60;;
77800;SDS011;66991;50.058;14.454;2023-02-19T00:56:14;2.95;;;1.55;;
77800;SDS011;66991;50.058;14.454;2023-02-19T00:58:40;3.17;;;1.55;;
77800;SDS011;66991;50.058;14.454;2023-02-19T01:01:05;3.22;;;1.60;;
77800;SDS011;66991;50.058;14.454;2023-02-19T01:03:31;2.28;;;1.30;;
77800;SDS011;66991;50.058;14.454;2023-02-19T01:05:57;2.50;;;1.50;;
77800;SDS011;66991;50.058;14.454;2023-02-19T01:08:22;3.08;;;1.40;;
77800;SDS011;66991;50.058;14.454;2023-02-19T01:10:48;3.15;;;1.35;;
77800;SDS011;66991;50.058;14.454;2023-02-19T01:13:13;2.70;;;1.52;;
77800;SDS011;66991;50.058;14.454;2023-02-19T01:15:38;3.08;;;1.58;;
77800;SDS011;66991;50.058;14.454;2023-02-19T01:18:04;2.75;;;1.40;;
77800;SDS011;66991;50.058;14.454;2023-02-19T01:20:30;2.92;;;1.50;;
77800;SDS011;66991;50.058;14.454;2023-02-19T01:22:55;3.03;;;1.35;;
77800;SDS011;66991;50.058;14.454;2023-02-19T01:25:20;3.40;;;1.50;;
77800;SDS011;66991;50.058;14.454;2023-02-19T01:27:46;2.60;;;1.35;;
77800;SDS011;66991;50.058;14.454;2023-02-19T01:30:11;3.45;;;1.55;;
77800;SDS011;66991;50.058;14.454;2023-02-19T01:32:37;2.60;;;1.50;;
77800;SDS011;66991;50.058;14.454;2023-02-19T01:35:02;2.45;;;1.45;;
77800;SDS011;66991;50.058;14.454;2023-02-19T01:37:28;2.63;;;1.50;;
77800;SDS011;66991;50.058;14.454;2023-02-19T01:39:53;2.95;;;1.52;;
77800;SDS011;66991;50.058;14.454;2023-02-19T01:42:19;3.10;;;1.55;;
77800;SDS011;66991;50.058;14.454;2023-02-19T01:47:10;4.18;;;1.35;;
77800;SDS011;66991;50.058;14.454;2023-02-19T01:49:37;3.13;;;1.50;;
77800;SDS011;66991;50.058;14.454;2023-02-19T01:52:12;2.20;;;1.50;;
77800;SDS011;66991;50.058;14.454;2023-02-19T01:54:42;2.30;;;1.40;;
77800;SDS011;66991;50.058;14.454;2023-02-19T01:57:10;4.32;;;1.65;;
77800;SDS011;66991;50.058;14.454;2023-02-19T01:59:38;2.45;;;1.50;;
77800;SDS011;66991;50.058;14.454;2023-02-19T02:02:03;2.67;;;1.40;;
77800;SDS011;66991;50.058;14.454;2023-02-19T02:04:29;3.00;;;1.65;;
77800;SDS011;66991;50.058;14.454;2023-02-19T02:06:55;3.65;;;1.83;;
77800;SDS011;66991;50.058;14.454;2023-02-19T02:09:23;3.00;;;1.45;;
77800;SDS011;66991;50.058;14.454;2023-02-19T02:12:10;2.88;;;1.63;;
77800;SDS011;66991;50.058;14.454;2023-02-19T02:14:37;2.95;;;1.65;;
77800;SDS011;66991;50.058;14.454;2023-02-19T02:19:37;2.70;;;1.80;;
77800;SDS011;66991;50.058;14.454;2023-02-19T02:22:20;3.65;;;1.90;;
77800;SDS011;66991;50.058;14.454;2023-02-19T02:28:06;4.32;;;1.95;;
77800;SDS011;66991;50.058;14.454;2023-02-19T02:35:57;3.53;;;1.98;;
77800;SDS011;66991;50.058;14.454;2023-02-19T02:38:26;3.47;;;1.90;;
77800;SDS011;66991;50.058;14.454;2023-02-19T02:40:53;4.70;;;2.25;;
77800;SDS011;66991;50.058;14.454;2023-02-19T02:43:19;3.05;;;1.80;;
77800;SDS011;66991;50.058;14.454;2023-02-19T02:45:45;3.15;;;1.80;;
77800;SDS011;66991;50.058;14.454;2023-02-19T02:48:26;2.90;;;1.70;;
77800;SDS011;66991;50.058;14.454;2023-02-19T02:51:15;2.55;;;1.40;;
77800;SDS011;66991;50.058;14.454;2023-02-19T02:53:52;3.42;;;1.75;;
77800;SDS011;66991;50.058;14.454;2023-02-19T02:56:49;3.92;;;1.77;;
77800;SDS011;66991;50.058;14.454;2023-02-19T02:59:17;4.15;;;1.88;;
77800;SDS011;66991;50.058;14.454;2023-02-19T03:01:52;2.85;;;1.60;;
77800;SDS011;66991;50.058;14.454;2023-02-19T03:07:37;2.60;;;1.55;;
77800;SDS011;66991;50.058;14.454;2023-02-19T03:10:12;3.83;;;2.28;;
77800;SDS011;66991;50.058;14.454;2023-02-19T03:12:40;2.80;;;1.92;;
77800;SDS011;66991;50.058;14.454;2023-02-19T03:15:26;4.03;;;1.80;;
77800;SDS011;66991;50.058;14.454;2023-02-19T03:18:12;3.47;;;2.00;;
77800;SDS011;66991;50.058;14.454;2023-02-19T03:20:57;3.80;;;2.50;;
77800;SDS011;66991;50.058;14.454;2023-02-19T03:23:24;3.83;;;2.05;;
77800;SDS011;66991;50.058;14.454;2023-02-19T03:26:12;5.55;;;2.42;;
77800;SDS011;66991;50.058;14.454;2023-02-19T03:28:38;4.22;;;2.40;;
77800;SDS011;66991;50.058;14.454;2023-02-19T03:31:23;4.03;;;2.70;;
77800;SDS011;66991;50.058;14.454;2023-02-19T03:34:02;5.00;;;2.88;;
77800;SDS011;66991;50.058;14.454;2023-02-19T03:36:41;3.80;;;2.58;;
77800;SDS011;66991;50.058;14.454;2023-02-19T03:39:08;3.67;;;2.53;;
77800;SDS011;66991;50.058;14.454;2023-02-19T03:41:38;4.30;;;2.72;;
77800;SDS011;66991;50.058;14.454;2023-02-19T03:44:15;5.32;;;2.90;;
77800;SDS011;66991;50.058;14.454;2023-02-19T03:46:59;5.25;;;2.70;;
77800;SDS011;66991;50.058;14.454;2023-02-19T03:54:34;4.07;;;2.50;;
77800;SDS011;66991;50.058;14.454;2023-02-19T03:57:03;4.10;;;2.80;;
77800;SDS011;66991;50.058;14.454;2023-02-19T03:59:41;4.95;;;2.60;;
77800;SDS011;66991;50.058;14.454;2023-02-19T04:02:29;4.30;;;2.78;;
77800;SDS011;66991;50.058;14.454;2023-02-19T04:05:12;5.40;;;3.08;;
77800;SDS011;66991;50.058;14.454;2023-02-19T04:07:42;4.63;;;3.10;;
77800;SDS011;66991;50.058;14.454;2023-02-19T04:10:09;5.45;;;3.05;;
77800;SDS011;66991;50.058;14.454;2023-02-19T04:12:36;5.00;;;2.83;;
77800;SDS011;66991;50.058;14.454;2023-02-19T04:15:09;5.03;;;3.10;;
77800;SDS011;66991;50.058;14.454;2023-02-19T04:17:37;3.85;;;2.50;;
77800;SDS011;66991;50.058;14.454;2023-02-19T04:20:05;5.30;;;2.90;;
77800;SDS011;66991;50.058;14.454;2023-02-19T04:22:32;5.32;;;3.05;;
77800;SDS011;66991;50.058;14.454;2023-02-19T04:24:59;4.78;;;3.15;;
77800;SDS011;66991;50.058;14.454;2023-02-19T04:27:24;4.72;;;2.95;;
77800;SDS011;66991;50.058;14.454;2023-02-19T04:29:50;5.10;;;3.05;;
77800;SDS011;66991;50.058;14.454;2023-02-19T04:32:15;7.97;;;2.72;;
77800;SDS011;66991;50.058;14.454;2023-02-19T04:34:40;4.07;;;2.53;;
77800;SDS011;66991;50.058;14.454;2023-02-19T04:37:06;4.47;;;2.70;;
77800;SDS011;66991;50.058;14.454;2023-02-19T04:39:31;3.97;;;2.42;;
77800;SDS011;66991;50.058;14.454;2023-02-19T04:41:57;4.75;;;2.78;;
77800;SDS011;66991;50.058;14.454;2023-02-19T04:44:22;4.03;;;2.60;;
77800;SDS011;66991;50.058;14.454;2023-02-19T04:46:47;3.38;;;2.00;;
77800;SDS011;66991;50.058;14.454;2023-02-19T04:49:13;4.00;;;2.25;;
77800;SDS011;66991;50.058;14.454;2023-02-19T04:51:38;4.40;;;2.47;;
77800;SDS011;66991;50.058;14.454;2023-02-19T04:54:04;4.50;;;2.47;;
77800;SDS011;66991;50.058;14.454;2023-02-19T04:56:29;4.20;;;2.40;;
77800;SDS011;66991;50.058;14.454;2023-02-19T04:58:55;4.18;;;2.33;;
77800;SDS011;66991;50.058;14.454;2023-02-19T05:01:20;3.47;;;2.40;;
77800;SDS011;66991;50.058;14.454;2023-02-19T05:03:46;3.47;;;2.38;;
77800;SDS011;66991;50.058;14.454;2023-02-19T05:06:12;3.33;;;1.95;;
77800;SDS011;66991;50.058;14.454;2023-02-19T05:08:38;3.75;;;2.30;;
77800;SDS011;66991;50.058;14.454;2023-02-19T05:11:04;3.72;;;2.28;;
77800;SDS011;66991;50.058;14.454;2023-02-19T05:13:30;5.50;;;2.90;;
77800;SDS011;66991;50.058;14.454;2023-02-19T05:15:57;4.25;;;2.50;;
77800;SDS011;66991;50.058;14.454;2023-02-19T05:18:23;3.80;;;2.50;;
77800;SDS011;66991;50.058;14.454;2023-02-19T05:20:49;4.25;;;2.63;;
77800;SDS011;66991;50.058;14.454;2023-02-19T05:23:15;4.05;;;2.58;;
77800;SDS011;66991;50.058;14.454;2023-02-19T05:25:40;4.28;;;2.78;;
77800;SDS011;66991;50.058;14.454;2023-02-19T05:28:06;3.92;;;2.47;;
77800;SDS011;66991;50.058;14.454;2023-02-19T05:30:47;4.93;;;2.75;;
77800;SDS011;66991;50.058;14.454;2023-02-19T05:33:14;4.78;;;2.85;;
77800;SDS011;66991;50.058;14.454;2023-02-19T05:35:41;4.68;;;3.20;;
77800;SDS011;66991;50.058;14.454;2023-02-19T05:38:07;10.63;;;5.28;;
77800;SDS011;66991;50.058;14.454;2023-02-19T05:40:33;11.68;;;5.82;;
77800;SDS011;66991;50.058;14.454;2023-02-19T05:42:58;8.48;;;4.25;;
77800;SDS011;66991;50.058;14.454;2023-02-19T05:45:23;8.75;;;5.10;;
77800;SDS011;66991;50.058;14.454;2023-02-19T05:47:49;6.25;;;3.50;;
77800;SDS011;66991;50.058;14.454;2023-02-19T05:50:15;10.20;;;5.35;;
77800;SDS011;66991;50.058;14.454;2023-02-19T05:52:40;3.92;;;2.50;;
77800;SDS011;66991;50.058;14.454;2023-02-19T05:55:05;6.15;;;3.03;;
77800;SDS011;66991;50.058;14.454;2023-02-19T05:57:31;5.03;;;2.80;;
77800;SDS011;66991;50.058;14.454;2023-02-19T05:59:56;6.47;;;3.22;;
77800;SDS011;66991;50.058;14.454;2023-02-19T06:02:21;4.72;;;3.08;;
77800;SDS011;66991;50.058;14.454;2023-02-19T06:04:47;5.82;;;3.45;;
77800;SDS011;66991;50.058;14.454;2023-02-19T06:07:12;5.13;;;2.65;;
77800;SDS011;66991;50.058;14.454;2023-02-19T06:09:37;3.50;;;2.20;;
77800;SDS011;66991;50.058;14.454;2023-02-19T06:12:03;3.47;;;2.20;;
77800;SDS011;66991;50.058;14.454;2023-02-19T06:14:28;3.83;;;2.35;;
77800;SDS011;66991;50.058;14.454;2023-02-19T06:16:53;3.80;;;2.47;;
77800;SDS011;66991;50.058;14.454;2023-02-19T06:19:19;3.30;;;2.10;;
77800;SDS011;66991;50.058;14.454;2023-02-19T06:21:44;3.88;;;2.30;;
77800;SDS011;66991;50.058;14.454;2023-02-19T06:24:10;3.88;;;2.25;;
77800;SDS011;66991;50.058;14.454;2023-02-19T06:26:36;5.65;;;2.90;;
77800;SDS011;66991;50.058;14.454;2023-02-19T06:29:02;3.53;;;1.88;;
77800;SDS011;66991;50.058;14.454;2023-02-19T06:31:27;4.07;;;2.55;;
77800;SDS011;66991;50.058;14.454;2023-02-19T06:33:53;3.15;;;1.50;;
77800;SDS011;66991;50.058;14.454;2023-02-19T06:36:19;4.15;;;1.80;;
77800;SDS011;66991;50.058;14.454;2023-02-19T06:38:45;4.63;;;2.22;;
77800;SDS011;66991;50.058;14.454;2023-02-19T06:41:11;2.38;;;1.50;;
77800;SDS011;66991;50.058;14.454;2023-02-19T06:43:36;5.05;;;2.50;;
77800;SDS011;66991;50.058;14.454;2023-02-19T06:46:03;3.13;;;1.50;;
77800;SDS011;66991;50.058;14.454;2023-02-19T06:48:29;2.33;;;1.55;;
77800;SDS011;66991;50.058;14.454;2023-02-19T06:50:55;4.65;;;2.30;;
77800;SDS011;66991;50.058;14.454;2023-02-19T06:53:21;3.08;;;1.50;;
77800;SDS011;66991;50.058;14.454;2023-02-19T06:55:57;3.58;;;1.85;;
77800;SDS011;66991;50.058;14.454;2023-02-19T06:58:30;2.67;;;1.40;;
77800;SDS011;66991;50.058;14.454;2023-02-19T07:00:56;2.83;;;1.60;;
77800;SDS011;66991;50.058;14.454;2023-02-19T07:03:21;2.88;;;1.45;;
77800;SDS011;66991;50.058;14.454;2023-02-19T07:05:47;3.00;;;1.88;;
77800;SDS011;66991;50.058;14.454;2023-02-19T07:08:12;3.03;;;1.63;;
77800;SDS011;66991;50.058;14.454;2023-02-19T07:10:38;2.47;;;1.30;;
77800;SDS011;66991;50.058;14.454;2023-02-19T07:13:03;1.95;;;1.00;;
77800;SDS011;66991;50.058;14.454;2023-02-19T07:15:29;1.48;;;0.90;;
77800;SDS011;66991;50.058;14.454;2023-02-19T07:17:54;1.65;;;0.85;;
77800;SDS011;66991;50.058;14.454;2023-02-19T07:20:19;2.45;;;1.30;;
77800;SDS011;66991;50.058;14.454;2023-02-19T07:22:45;2.10;;;1.10;;
77800;SDS011;66991;50.058;14.454;2023-02-19T07:25:10;3.03;;;1.20;;
77800;SDS011;66991;50.058;14.454;2023-02-19T07:27:35;2.10;;;1.10;;
77800;SDS011;66991;50.058;14.454;2023-02-19T07:30:01;2.08;;;0.98;;
77800;SDS011;66991;50.058;14.454;2023-02-19T07:32:27;2.08;;;1.23;;
77800;SDS011;66991;50.058;14.454;2023-02-19T07:34:52;2.55;;;1.17;;
77800;SDS011;66991;50.058;14.454;2023-02-19T07:37:17;2.38;;;1.15;;
77800;SDS011;66991;50.058;14.454;2023-02-19T07:39:43;2.92;;;1.27;;
77800;SDS011;66991;50.058;14.454;2023-02-19T07:42:08;2.95;;;1.42;;
77800;SDS011;66991;50.058;14.454;2023-02-19T07:44:33;2.70;;;1.25;;
77800;SDS011;66991;50.058;14.454;2023-02-19T07:46:59;2.17;;;1.20;;
77800;SDS011;66991;50.058;14.454;2023-02-19T07:49:24;2.28;;;1.10;;
77800;SDS011;66991;50.058;14.454;2023-02-19T07:51:49;2.67;;;1.40;;
77800;SDS011;66991;50.058;14.454;2023-02-19T07:54:15;3.80;;;1.52;;
77800;SDS011;66991;50.058;14.454;2023-02-19T07:56:40;2.67;;;1.25;;
77800;SDS011;66991;50.058;14.454;2023-02-19T07:59:05;3.13;;;1.65;;
77800;SDS011;66991;50.058;14.454;2023-02-19T08:01:31;4.63;;;2.47;;
77800;SDS011;66991;50.058;14.454;2023-02-19T08:04:14;2.83;;;1.48;;
77800;SDS011;66991;50.058;14.454;2023-02-19T08:06:40;3.95;;;2.22;;
77800;SDS011;66991;50.058;14.454;2023-02-19T08:09:05;4.15;;;2.30;;
77800;SDS011;66991;50.058;14.454;2023-02-19T08:11:31;2.75;;;1.33;;
77800;SDS011;66991;50.058;14.454;2023-02-19T08:14:15;3.40;;;1.35;;
77800;SDS011;66991;50.058;14.454;2023-02-19T08:16:46;2.85;;;1.30;;
77800;SDS011;66991;50.058;14.454;2023-02-19T08:19:13;3.13;;;1.75;;
77800;SDS011;66991;50.058;14.454;2023-02-19T08:21:38;3.80;;;1.52;;
77800;SDS011;66991;50.058;14.454;2023-02-19T08:24:03;3.50;;;1.48;;
77800;SDS011;66991;50.058;14.454;2023-02-19T08:26:29;3.45;;;1.90;;
77800;SDS011;66991;50.058;14.454;2023-02-19T08:28:54;4.63;;;1.75;;
77800;SDS011;66991;50.058;14.454;2023-02-19T08:31:20;4.50;;;1.55;;
77800;SDS011;66991;50.058;14.454;2023-02-19T08:33:45;3.75;;;1.58;;
77800;SDS011;66991;50.058;14.454;2023-02-19T08:36:11;5.88;;;1.88;;
77800;SDS011;66991;50.058;14.454;2023-02-19T08:38:36;3.80;;;1.80;;
77800;SDS011;66991;50.058;14.454;2023-02-19T08:41:03;4.50;;;1.65;;
77800;SDS011;66991;50.058;14.454;2023-02-19T08:43:29;5.18;;;1.65;;
77800;SDS011;66991;50.058;14.454;2023-02-19T08:45:55;3.33;;;1.67;;
77800;SDS011;66991;50.058;14.454;2023-02-19T08:48:20;4.53;;;2.20;;
77800;SDS011;66991;50.058;14.454;2023-02-19T08:50:51;3.10;;;1.50;;
77800;SDS011;66991;50.058;14.454;2023-02-19T08:53:28;3.78;;;1.77;;
77800;SDS011;66991;50.058;14.454;2023-02-19T08:55:54;3.88;;;1.60;;
77800;SDS011;66991;50.058;14.454;2023-02-19T08:58:19;3.80;;;2.10;;
77800;SDS011;66991;50.058;14.454;2023-02-19T09:00:45;2.88;;;1.58;;
77800;SDS011;66991;50.058;14.454;2023-02-19T09:03:11;3.85;;;1.50;;
77800;SDS011;66991;50.058;14.454;2023-02-19T09:05:36;3.30;;;1.30;;
77800;SDS011;66991;50.058;14.454;2023-02-19T09:08:02;2.63;;;1.27;;
77800;SDS011;66991;50.058;14.454;2023-02-19T09:10:27;2.13;;;1.10;;
77800;SDS011;66991;50.058;14.454;2023-02-19T09:12:52;3.22;;;1.23;;
77800;SDS011;66991;50.058;14.454;2023-02-19T09:15:18;2.00;;;1.05;;
77800;SDS011;66991;50.058;14.454;2023-02-19T09:17:43;2.13;;;1.20;;
77800;SDS011;66991;50.058;14.454;2023-02-19T09:20:08;2.28;;;1.10;;
77800;SDS011;66991;50.058;14.454;2023-02-19T09:22:35;4.68;;;2.08;;
77800;SDS011;66991;50.058;14.454;2023-02-19T09:25:00;3.35;;;1.33;;
77800;SDS011;66991;50.058;14.454;2023-02-19T09:27:26;2.60;;;1.20;;
77800;SDS011;66991;50.058;14.454;2023-02-19T09:29:51;4.07;;;2.30;;
77800;SDS011;66991;50.058;14.454;2023-02-19T09:32:18;6.05;;;3.15;;
77800;SDS011;66991;50.058;14.454;2023-02-19T09:34:44;4.22;;;1.15;;
77800;SDS011;66991;50.058;14.454;2023-02-19T09:37:09;1.85;;;0.85;;
77800;SDS011;66991;50.058;14.454;2023-02-19T09:39:35;2.38;;;1.00;;
77800;SDS011;66991;50.058;14.454;2023-02-19T09:42:02;2.03;;;0.80;;
77800;SDS011;66991;50.058;14.454;2023-02-19T09:44:33;1.85;;;0.90;;
77800;SDS011;66991;50.058;14.454;2023-02-19T09:47:00;2.05;;;1.02;;
77800;SDS011;66991;50.058;14.454;2023-02-19T09:49:32;2.30;;;0.80;;
77800;SDS011;66991;50.058;14.454;2023-02-19T09:54:29;2.25;;;0.80;;
77800;SDS011;66991;50.058;14.454;2023-02-19T09:56:56;1.48;;;0.60;;
77800;SDS011;66991;50.058;14.454;2023-02-19T09:59:25;2.35;;;0.80;;
77800;SDS011;66991;50.058;14.454;2023-02-19T10:01:54;2.15;;;0.90;;
77800;SDS011;66991;50.058;14.454;2023-02-19T10:04:23;1.80;;;1.10;;
77800;SDS011;66991;50.058;14.454;2023-02-19T10:06:49;2.38;;;0.60;;
77800;SDS011;66991;50.058;14.454;2023-02-19T10:09:24;1.55;;;0.70;;
77800;SDS011;66991;50.058;14.454;2023-02-19T10:11:53;1.58;;;0.93;;
77800;SDS011;66991;50.058;14.454;2023-02-19T10:14:41;2.83;;;1.10;;
77800;SDS011;66991;50.058;14.454;2023-02-19T10:17:06;1.88;;;0.85;;
77800;SDS011;66991;50.058;14.454;2023-02-19T10:19:34;1.40;;;0.88;;
77800;SDS011;66991;50.058;14.454;2023-02-19T10:22:00;2.10;;;0.93;;
77800;SDS011;66991;50.058;14.454;2023-02-19T10:24:27;2.75;;;1.17;;
77800;SDS011;66991;50.058;14.454;2023-02-19T10:26:53;2.60;;;0.70;;
77800;SDS011;66991;50.058;14.454;2023-02-19T10:29:19;1.40;;;0.60;;
77800;SDS011;66991;50.058;14.454;2023-02-19T10:31:46;1.35;;;0.63;;
77800;SDS011;66991;50.058;14.454;2023-02-19T10:34:18;2.75;;;1.20;;
77800;SDS011;66991;50.058;14.454;2023-02-19T10:36:49;1.40;;;0.50;;
77800;SDS011;66991;50.058;14.454;2023-02-19T10:40:01;1.17;;;0.55;;
77800;SDS011;66991;50.058;14.454;2023-02-19T10:42:15;1.75;;;0.60;;
77800;SDS011;66991;50.058;14.454;2023-02-19T10:44:44;1.88;;;0.70;;
77800;SDS011;66991;50.058;14.454;2023-02-19T10:47:15;1.73;;;0.80;;
77800;SDS011;66991;50.058;14.454;2023-02-19T10:49:42;1.95;;;0.73;;
77800;SDS011;66991;50.058;14.454;2023-02-19T10:52:31;1.70;;;0.80;;
77800;SDS011;66991;50.058;14.454;2023-02-19T10:57:43;1.52;;;0.70;;
77800;SDS011;66991;50.058;14.454;2023-02-19T11:02:43;1.85;;;0.65;;
77800;SDS011;66991;50.058;14.454;2023-02-19T11:07:44;2.55;;;0.60;;
77800;SDS011;66991;50.058;14.454;2023-02-19T11:10:21;2.15;;;0.80;;
77800;SDS011;66991;50.058;14.454;2023-02-19T11:12:53;2.15;;;0.70;;
77800;SDS011;66991;50.058;14.454;2023-02-19T11:20:21;1.92;;;0.77;;
77800;SDS011;66991;50.058;14.454;2023-02-19T11:22:47;1.83;;;0.90;;
77800;SDS011;66991;50.058;14.454;2023-02-19T11:30:35;1.30;;;0.80;;
77800;SDS011;66991;50.058;14.454;2023-02-19T11:35:46;1.50;;;0.70;;
77800;SDS011;66991;50.058;14.454;2023-02-19T11:38:14;1.58;;;0.70;;
77800;SDS011;66991;50.058;14.454;2023-02-19T11:41:01;1.98;;;0.70;;
77800;SDS011;66991;50.058;14.454;2023-02-19T11:43:43;2.63;;;0.85;;
77800;SDS011;66991;50.058;14.454;2023-02-19T11:52:12;1.60;;;0.80;;
77800;SDS011;66991;50.058;14.454;2023-02-19T11:54:54;2.72;;;1.10;;
77800;SDS011;66991;50.058;14.454;2023-02-19T11:57:42;6.43;;;1.85;;
77800;SDS011;66991;50.058;14.454;2023-02-19T12:13:56;3.28;;;1.10;;
77800;SDS011;66991;50.058;14.454;2023-02-19T12:16:47;2.60;;;0.98;;
77800;SDS011;66991;50.058;14.454;2023-02-19T12:27:48;2.83;;;0.80;;
77800;SDS011;66991;50.058;14.454;2023-02-19T12:30:35;1.55;;;0.90;;
77800;SDS011;66991;50.058;14.454;2023-02-19T12:36:31;1.88;;;0.70;;
77800;SDS011;66991;50.058;14.454;2023-02-19T12:44:20;2.30;;;0.70;;
77800;SDS011;66991;50.058;14.454;2023-02-19T12:46:50;1.40;;;0.68;;
77800;SDS011;66991;50.058;14.454;2023-02-19T12:51:54;1.88;;;0.88;;
77800;SDS011;66991;50.058;14.454;2023-02-19T12:54:46;1.80;;;0.93;;
77800;SDS011;66991;50.058;14.454;2023-02-19T12:57:21;2.90;;;0.80;;
77800;SDS011;66991;50.058;14.454;2023-02-19T13:03:02;1.40;;;0.75;;
77800;SDS011;66991;50.058;14.454;2023-02-19T13:10:50;2.08;;;1.00;;
77800;SDS011;66991;50.058;14.454;2023-02-19T13:13:29;2.83;;;0.80;;
77800;SDS011;66991;50.058;14.454;2023-02-19T13:16:01;2.00;;;1.05;;
77800;SDS011;66991;50.058;14.454;2023-02-19T13:18:33;1.27;;;0.73;;
77800;SDS011;66991;50.058;14.454;2023-02-19T13:21:04;3.88;;;1.65;;
77800;SDS011;66991;50.058;14.454;2023-02-19T13:23:34;2.13;;;0.82;;
77800;SDS011;66991;50.058;14.454;2023-02-19T13:37:44;1.48;;;0.65;;
77800;SDS011;66991;50.058;14.454;2023-02-19T13:40:31;2.55;;;0.80;;
77800;SDS011;66991;50.058;14.454;2023-02-19T13:43:23;0.85;;;0.50;;
77800;SDS011;66991;50.058;14.454;2023-02-19T13:46:00;2.13;;;0.80;;
77800;SDS011;66991;50.058;14.454;2023-02-19T13:48:28;0.88;;;0.50;;
77800;SDS011;66991;50.058;14.454;2023-02-19T13:56:33;1.65;;;0.90;;
77800;SDS011;66991;50.058;14.454;2023-02-19T13:58:51;1.92;;;0.88;;
77800;SDS011;66991;50.058;14.454;2023-02-19T14:25:25;3.03;;;1.10;;
77800;SDS011;66991;50.058;14.454;2023-02-19T14:30:52;2.40;;;1.15;;
77800;SDS011;66991;50.058;14.454;2023-02-19T14:33:20;3.38;;;1.25;;
77800;SDS011;66991;50.058;14.454;2023-02-19T14:35:48;3.40;;;1.60;;
77800;SDS011;66991;50.058;14.454;2023-02-19T14:38:27;5.07;;;2.83;;
77800;SDS011;66991;50.058;14.454;2023-02-19T14:40:56;3.90;;;2.10;;
77800;SDS011;66991;50.058;14.454;2023-02-19T14:43:22;2.60;;;1.40;;
77800;SDS011;66991;50.058;14.454;2023-02-19T14:45:51;2.75;;;1.23;;
77800;SDS011;66991;50.058;14.454;2023-02-19T14:48:24;3.33;;;1.58;;
77800;SDS011;66991;50.058;14.454;2023-02-19T14:50:53;2.75;;;1.33;;
77800;SDS011;66991;50.058;14.454;2023-02-19T14:53:21;3.40;;;2.17;;
77800;SDS011;66991;50.058;14.454;2023-02-19T15:02:31;2.38;;;1.38;;
77800;SDS011;66991;50.058;14.454;2023-02-19T15:04:56;5.45;;;2.78;;
77800;SDS011;66991;50.058;14.454;2023-02-19T15:12:22;2.83;;;1.30;;
77800;SDS011;66991;50.058;14.454;2023-02-19T15:14:49;4.68;;;2.08;;
77800;SDS011;66991;50.058;14.454;2023-02-19T15:17:27;2.78;;;1.65;;
77800;SDS011;66991;50.058;14.454;2023-02-19T15:19:54;4.18;;;2.40;;
77800;SDS011;66991;50.058;14.454;2023-02-19T15:22:21;3.60;;;1.73;;
77800;SDS011;66991;50.058;14.454;2023-02-19T15:24:48;3.92;;;1.73;;
77800;SDS011;66991;50.058;14.454;2023-02-19T15:27:15;5.30;;;2.03;;
77800;SDS011;66991;50.058;14.454;2023-02-19T15:29:44;6.10;;;3.33;;
77800;SDS011;66991;50.058;14.454;2023-02-19T15:32:23;4.90;;;2.60;;
77800;SDS011;66991;50.058;14.454;2023-02-19T15:34:59;4.07;;;2.08;;
77800;SDS011;66991;50.058;14.454;2023-02-19T15:37:27;3.95;;;1.85;;
77800;SDS011;66991;50.058;14.454;2023-02-19T15:39:54;3.35;;;1.92;;
77800;SDS011;66991;50.058;14.454;2023-02-19T15:42:28;2.65;;;1.73;;
77800;SDS011;66991;50.058;14.454;2023-02-19T15:48:06;3.65;;;1.52;;
77800;SDS011;66991;50.058;14.454;2023-02-19T15:50:33;3.03;;;2.08;;
77800;SDS011;66991;50.058;14.454;2023-02-19T15:53:05;5.18;;;2.00;;
77800;SDS011;66991;50.058;14.454;2023-02-19T15:55:44;3.22;;;1.80;;
77800;SDS011;66991;50.058;14.454;2023-02-19T15:58:17;4.32;;;1.88;;
77800;SDS011;66991;50.058;14.454;2023-02-19T16:01:03;3.33;;;1.73;;
77800;SDS011;66991;50.058;14.454;2023-02-19T16:03:49;4.30;;;1.40;;
77800;SDS011;66991;50.058;14.454;2023-02-19T16:06:15;2.60;;;1.13;;
77800;SDS011;66991;50.058;14.454;2023-02-19T16:08:42;3.83;;;1.50;;
77800;SDS011;66991;50.058;14.454;2023-02-19T16:13:46;3.08;;;1.50;;
77800;SDS011;66991;50.058;14.454;2023-02-19T16:16:13;4.10;;;1.80;;
77800;SDS011;66991;50.058;14.454;2023-02-19T16:18:46;3.67;;;1.60;;
77800;SDS011;66991;50.058;14.454;2023-02-19T16:21:13;2.55;;;1.38;;
77800;SDS011;66991;50.058;14.454;2023-02-19T16:23:40;2.78;;;1.10;;
77800;SDS011;66991;50.058;14.454;2023-02-19T16:26:07;2.92;;;1.38;;
77800;SDS011;66991;50.058;14.454;2023-02-19T16:28:35;4.97;;;1.42;;
77800;SDS011;66991;50.058;14.454;2023-02-19T16:31:05;2.25;;;1.30;;
77800;SDS011;66991;50.058;14.454;2023-02-19T16:33:33;3.17;;;1.30;;
77800;SDS011;66991;50.058;14.454;2023-02-19T16:41:30;2.22;;;1.05;;
77800;SDS011;66991;50.058;14.454;2023-02-19T16:44:01;3.20;;;1.50;;
77800;SDS011;66991;50.058;14.454;2023-02-19T16:46:51;3.08;;;1.27;;
77800;SDS011;66991;50.058;14.454;2023-02-19T16:49:18;4.25;;;1.15;;
77800;SDS011;66991;50.058;14.454;2023-02-19T16:51:44;4.10;;;1.40;;
77800;SDS011;66991;50.058;14.454;2023-02-19T16:54:10;3.90;;;1.60;;
77800;SDS011;66991;50.058;14.454;2023-02-19T16:56:36;3.00;;;1.20;;
77800;SDS011;66991;50.058;14.454;2023-02-19T16:59:01;2.97;;;1.25;;
77800;SDS011;66991;50.058;14.454;2023-02-19T17:01:27;3.03;;;1.40;;
77800;SDS011;66991;50.058;14.454;2023-02-19T17:03:53;11.75;;;4.90;;
77800;SDS011;66991;50.058;14.454;2023-02-19T17:06:22;4.55;;;2.00;;
77800;SDS011;66991;50.058;14.454;2023-02-19T17:08:48;10.13;;;3.88;;
77800;SDS011;66991;50.058;14.454;2023-02-19T17:11:14;3.05;;;1.20;;
77800;SDS011;66991;50.058;14.454;2023-02-19T17:13:41;3.28;;;1.52;;
77800;SDS011;66991;50.058;14.454;2023-02-19T17:16:08;5.10;;;2.25;;
77800;SDS011;66991;50.058;14.454;2023-02-19T17:18:35;7.05;;;2.30;;
77800;SDS011;66991;50.058;14.454;2023-02-19T17:21:09;4.30;;;1.83;;
77800;SDS011;66991;50.058;14.454;2023-02-19T17:23:38;8.95;;;1.85;;
77800;SDS011;66991;50.058;14.454;2023-02-19T17:26:03;6.75;;;2.78;;